Time,TemperatureF,DewpointF,PressureIn,WindDirection,WindDirectionDegrees,WindSpeedMPH,WindSpeedGustMPH,Humidity,HourlyPrecipIn,Conditions,Clouds,dailyrainin,SoftwareType,DateUTC
2013-03-15 00:00:00,34.0,14.9,29.92,WSW,248,0.0,17.6,45,0.00,,,0.00,heavyweathercustom,2013-03-15 04:00:00,
2013-03-15 00:10:00,33.8,14.7,29.93,WSW,248,0.0,17.6,45,0.00,,,0.00,heavyweathercustom,2013-03-15 04:10:00,
2013-03-15 00:20:00,33.6,15.1,29.93,ENE,68,3.3,12.8,46,0.00,,,0.00,heavyweathercustom,2013-03-15 04:20:00,
2013-03-15 00:30:00,33.6,15.1,29.93,ENE,68,3.3,27.1,46,0.00,,,0.00,heavyweathercustom,2013-03-15 04:30:00,
2013-03-15 00:40:00,33.6,15.1,29.93,ENE,68,10.1,27.1,46,0.00,,,0.00,heavyweathercustom,2013-03-15 04:40:00,
2013-03-15 00:50:00,33.6,15.5,29.93,WSW,248,0.0,27.1,47,0.00,,,0.00,heavyweathercustom,2013-03-15 04:50:00,
2013-03-15 01:00:00,33.3,15.3,29.93,East,90,0.0,20.7,47,0.00,,,0.00,heavyweathercustom,2013-03-15 05:00:00,
2013-03-15 01:20:00,32.9,14.9,29.94,ENE,68,3.3,20.7,47,0.00,,,0.00,heavyweathercustom,2013-03-15 05:20:00,
2013-03-15 01:30:00,32.7,14.7,29.94,ENE,68,0.0,22.1,47,0.00,,,0.00,heavyweathercustom,2013-03-15 05:30:00,
2013-03-15 01:40:00,32.7,15.2,29.93,South,180,0.0,22.1,48,0.00,,,0.00,heavyweathercustom,2013-03-15 05:40:00,
2013-03-15 01:50:00,32.5,15.0,29.93,ENE,68,0.0,22.1,48,0.00,,,0.00,heavyweathercustom,2013-03-15 05:50:00,
2013-03-15 02:00:00,32.5,15.5,29.93,WSW,248,0.0,12.8,49,0.00,,,0.00,heavyweathercustom,2013-03-15 06:00:00,
2013-03-15 02:10:00,32.5,15.5,29.93,SSE,158,0.0,12.8,49,0.00,,,0.00,heavyweathercustom,2013-03-15 06:10:00,
2013-03-15 02:20:00,32.4,15.4,29.93,SSW,203,0.0,12.8,49,0.00,,,0.00,heavyweathercustom,2013-03-15 06:20:00,
2013-03-15 02:30:00,32.4,15.9,29.93,ENE,68,0.0,12.8,50,0.00,,,0.00,heavyweathercustom,2013-03-15 06:30:00,
2013-03-15 02:40:00,32.4,15.9,29.93,East,90,0.0,11.1,50,0.00,,,0.00,heavyweathercustom,2013-03-15 06:40:00,
2013-03-15 02:50:00,32.2,16.1,29.93,ENE,68,3.3,11.1,51,0.00,,,0.00,heavyweathercustom,2013-03-15 06:50:00,
2013-03-15 03:00:00,32.2,16.1,29.92,ENE,68,0.0,25.1,51,0.00,,,0.00,heavyweathercustom,2013-03-15 07:00:00,
2013-03-15 03:10:00,31.8,15.8,29.92,ENE,68,3.3,25.1,51,0.00,,,0.00,heavyweathercustom,2013-03-15 07:10:00,
2013-03-15 03:20:00,31.8,15.8,29.92,South,180,0.0,25.1,51,0.00,,,0.00,heavyweathercustom,2013-03-15 07:20:00,
2013-03-15 03:40:00,31.8,16.2,29.92,NE,45,0.0,25.1,52,0.00,,,0.00,heavyweathercustom,2013-03-15 07:40:00,
2013-03-15 04:00:00,31.8,16.2,29.92,NE,45,6.8,13.1,52,0.00,,,0.00,heavyweathercustom,2013-03-15 08:00:00,
2013-03-15 04:10:00,31.6,16.0,29.92,NE,45,0.0,13.1,52,0.00,,,0.00,heavyweathercustom,2013-03-15 08:10:00,
2013-03-15 04:30:00,31.6,16.0,29.93,ENE,68,3.3,13.1,52,0.00,,,0.00,heavyweathercustom,2013-03-15 08:30:00,
2013-03-15 04:40:00,31.6,16.0,29.93,ENE,68,6.8,12.5,52,0.00,,,0.00,heavyweathercustom,2013-03-15 08:40:00,
2013-03-15 05:00:00,31.6,16.0,29.93,ENE,68,6.8,13.4,52,0.00,,,0.00,heavyweathercustom,2013-03-15 09:00:00,
2013-03-15 05:40:00,31.3,16.6,29.93,SSE,158,0.0,11.4,54,0.00,,,0.00,heavyweathercustom,2013-03-15 09:40:00,
2013-03-15 05:50:00,31.3,16.6,29.94,ENE,68,0.0,11.4,54,0.00,,,0.00,heavyweathercustom,2013-03-15 09:50:00,
2013-03-15 06:00:00,31.1,16.4,29.93,SE,135,0.0,11.4,54,0.00,,,0.00,heavyweathercustom,2013-03-15 10:00:00,
2013-03-15 06:10:00,31.1,17.3,29.93,SE,135,0.0,11.4,56,0.00,,,0.00,heavyweathercustom,2013-03-15 10:10:00,
2013-03-15 06:40:00,31.1,16.8,29.95,ENE,68,6.8,10.8,55,0.00,,,0.00,heavyweathercustom,2013-03-15 10:40:00,
2013-03-15 06:50:00,31.3,17.4,29.94,ENE,68,0.0,10.8,56,0.00,,,0.00,heavyweathercustom,2013-03-15 10:50:00,
2013-03-15 07:00:00,31.6,17.3,29.95,South,180,3.3,8.7,55,0.00,,,0.00,heavyweathercustom,2013-03-15 11:00:00,
2013-03-15 07:10:00,31.6,17.3,29.95,SE,135,0.0,8.7,55,0.00,,,0.00,heavyweathercustom,2013-03-15 11:10:00,
2013-03-15 07:20:00,31.6,17.3,29.95,WSW,248,0.0,8.7,55,0.00,,,0.00,heavyweathercustom,2013-03-15 11:20:00,
2013-03-15 07:30:00,31.6,16.9,29.95,WSW,248,0.0,6.8,54,0.00,,,0.00,heavyweathercustom,2013-03-15 11:30:00,
2013-03-15 07:40:00,31.8,17.1,29.94,WSW,248,0.0,6.8,54,0.00,,,0.00,heavyweathercustom,2013-03-15 11:40:00,
2013-03-15 07:50:00,32.4,17.2,29.94,East,90,3.3,10.4,53,0.00,,,0.00,heavyweathercustom,2013-03-15 11:50:00,
2013-03-15 08:10:00,33.3,17.6,29.94,WSW,248,0.0,10.4,52,0.00,,,0.00,heavyweathercustom,2013-03-15 12:10:00,
2013-03-15 08:20:00,33.6,17.4,29.93,SSW,203,0.0,10.4,51,0.00,,,0.00,heavyweathercustom,2013-03-15 12:20:00,
2013-03-15 08:30:00,34.0,17.8,29.93,West,270,0.0,12.8,51,0.00,,,0.00,heavyweathercustom,2013-03-15 12:30:00,
2013-03-15 08:50:00,34.3,18.1,29.93,WSW,248,0.0,9.0,51,0.00,,,0.00,heavyweathercustom,2013-03-15 12:50:00,
2013-03-15 09:00:00,34.9,18.6,29.92,SE,135,0.0,9.0,51,0.00,,,0.00,heavyweathercustom,2013-03-15 13:00:00,
2013-03-15 09:10:00,35.2,18.9,29.91,SW,225,0.0,9.0,51,0.00,,,0.00,heavyweathercustom,2013-03-15 13:10:00,
2013-03-15 09:30:00,36.0,19.2,29.90,SSW,203,0.0,4.4,50,0.00,,,0.00,heavyweathercustom,2013-03-15 13:30:00,
2013-03-15 09:50:00,36.7,19.8,29.90,NNE,23,0.0,5.4,50,0.00,,,0.00,heavyweathercustom,2013-03-15 13:50:00,
2013-03-15 10:00:00,36.9,20.0,29.90,SW,225,0.0,5.4,50,0.00,,,0.00,heavyweathercustom,2013-03-15 14:00:00,
2013-03-15 10:10:00,37.4,20.5,29.89,NW,315,0.0,5.4,50,0.00,,,0.00,heavyweathercustom,2013-03-15 14:10:00,
2013-03-15 10:20:00,37.6,20.7,29.88,South,180,0.0,5.4,50,0.00,,,0.00,heavyweathercustom,2013-03-15 14:20:00,
2013-03-15 10:40:00,37.0,20.1,29.87,SW,225,0.0,2.7,50,0.00,,,0.00,heavyweathercustom,2013-03-15 14:40:00,
2013-03-15 11:00:00,37.2,20.8,29.86,South,180,0.0,7.7,51,0.00,,,0.00,heavyweathercustom,2013-03-15 15:00:00,
2013-03-15 11:10:00,37.9,21.4,29.85,SW,225,0.0,9.8,51,0.00,,,0.00,heavyweathercustom,2013-03-15 15:10:00,
2013-03-15 11:20:00,38.1,21.1,29.85,SSW,203,0.0,9.8,50,0.00,,,0.00,heavyweathercustom,2013-03-15 15:20:00,
2013-03-15 11:50:00,40.5,23.3,29.83,SSW,203,0.0,9.8,50,0.00,,,0.00,heavyweathercustom,2013-03-15 15:50:00,
2013-03-15 12:00:00,40.8,23.6,29.82,SW,225,0.0,22.0,50,0.00,,,0.00,heavyweathercustom,2013-03-15 16:00:00,
2013-03-15 12:50:00,41.4,24.6,29.80,ESE,113,0.0,5.7,51,0.00,,,0.00,heavyweathercustom,2013-03-15 16:50:00,
2013-03-15 13:10:00,41.7,24.9,29.78,South,180,0.0,5.7,51,0.00,,,0.00,heavyweathercustom,2013-03-15 17:10:00,
2013-03-15 13:20:00,42.4,25.6,29.77,South,180,0.0,9.8,51,0.00,,,0.00,heavyweathercustom,2013-03-15 17:20:00,
2013-03-15 13:40:00,43.0,26.1,29.77,East,90,3.3,9.8,51,0.00,,,0.00,heavyweathercustom,2013-03-15 17:40:00,
2013-03-15 13:50:00,42.8,25.9,29.75,East,90,0.0,7.4,51,0.00,,,0.00,heavyweathercustom,2013-03-15 17:50:00,
2013-03-15 14:00:00,43.0,26.1,29.75,ESE,113,0.0,7.4,51,0.00,,,0.00,heavyweathercustom,2013-03-15 18:00:00,
2013-03-15 14:10:00,43.2,26.3,29.74,SW,225,0.0,7.4,51,0.00,,,0.00,heavyweathercustom,2013-03-15 18:10:00,
2013-03-15 14:20:00,43.3,26.9,29.74,South,180,0.0,11.7,52,0.00,,,0.00,heavyweathercustom,2013-03-15 18:20:00,
2013-03-15 14:30:00,43.5,27.1,29.73,ESE,113,0.0,11.7,52,0.00,,,0.00,heavyweathercustom,2013-03-15 18:30:00,
2013-03-15 14:40:00,43.9,27.4,29.73,South,180,0.0,11.7,52,0.00,,,0.00,heavyweathercustom,2013-03-15 18:40:00,
2013-03-15 15:10:00,44.2,27.7,29.71,SSW,203,0.0,8.4,52,0.00,,,0.00,heavyweathercustom,2013-03-15 19:10:00,
2013-03-15 15:20:00,44.2,28.2,29.70,SSW,203,0.0,8.4,53,0.00,,,0.00,heavyweathercustom,2013-03-15 19:20:00,
2013-03-15 15:30:00,44.2,28.2,29.71,SW,225,0.0,8.4,53,0.00,,,0.00,heavyweathercustom,2013-03-15 19:30:00,
2013-03-15 15:40:00,44.2,28.2,29.71,SSW,203,0.0,7.1,53,0.00,,,0.00,heavyweathercustom,2013-03-15 19:40:00,
2013-03-15 15:50:00,44.2,28.2,29.70,WSW,248,0.0,7.1,53,0.00,,,0.00,heavyweathercustom,2013-03-15 19:50:00,
2013-03-15 16:20:00,44.4,28.8,29.69,SW,225,0.0,8.1,54,0.00,,,0.00,heavyweathercustom,2013-03-15 20:20:00,
2013-03-15 16:30:00,44.8,29.2,29.69,SW,225,0.0,13.4,54,0.00,,,0.00,heavyweathercustom,2013-03-15 20:30:00,
2013-03-15 16:40:00,45.0,29.4,29.68,South,180,0.0,13.4,54,0.00,,,0.00,heavyweathercustom,2013-03-15 20:40:00,
2013-03-15 17:00:00,45.1,29.5,29.68,SW,225,0.0,13.4,54,0.00,,,0.00,heavyweathercustom,2013-03-15 21:00:00,
2013-03-15 17:10:00,45.1,29.5,29.69,SW,225,0.0,13.4,54,0.00,,,0.00,heavyweathercustom,2013-03-15 21:10:00,
2013-03-15 17:20:00,45.1,29.5,29.69,SW,225,0.0,7.1,54,0.00,,,0.00,heavyweathercustom,2013-03-15 21:20:00,
2013-03-15 17:30:00,45.1,29.5,29.69,SSW,203,0.0,7.1,54,0.00,,,0.00,heavyweathercustom,2013-03-15 21:30:00,
2013-03-15 17:40:00,45.3,29.6,29.69,WSW,248,0.0,11.7,54,0.00,,,0.00,heavyweathercustom,2013-03-15 21:40:00,
2013-03-15 17:50:00,45.5,29.8,29.69,South,180,0.0,11.7,54,0.00,,,0.00,heavyweathercustom,2013-03-15 21:50:00,
2013-03-15 18:00:00,45.7,30.5,29.69,SSW,203,0.0,11.7,55,0.00,,,0.00,heavyweathercustom,2013-03-15 22:00:00,
2013-03-15 18:10:00,45.9,30.2,29.69,ENE,68,0.0,4.7,54,0.00,,,0.00,heavyweathercustom,2013-03-15 22:10:00,
2013-03-15 18:20:00,46.0,30.3,29.69,SSE,158,0.0,4.7,54,0.00,,,0.00,heavyweathercustom,2013-03-15 22:20:00,
2013-03-15 18:30:00,46.0,30.3,29.70,ENE,68,0.0,11.4,54,0.00,,,0.00,heavyweathercustom,2013-03-15 22:30:00,
2013-03-15 18:40:00,46.2,30.0,29.70,East,90,0.0,11.4,53,0.00,,,0.00,heavyweathercustom,2013-03-15 22:40:00,
2013-03-15 18:50:00,46.6,30.4,29.70,ESE,113,0.0,11.4,53,0.00,,,0.00,heavyweathercustom,2013-03-15 22:50:00,
2013-03-15 19:00:00,46.4,30.2,29.71,ENE,68,0.0,11.4,53,0.00,,,0.00,heavyweathercustom,2013-03-15 23:00:00,
2013-03-15 19:20:00,46.6,30.9,29.71,North,0,0.0,9.5,54,0.00,,,0.00,heavyweathercustom,2013-03-15 23:20:00,
2013-03-15 19:30:00,46.6,31.3,29.71,East,90,0.0,9.5,55,0.00,,,0.00,heavyweathercustom,2013-03-15 23:30:00,
2013-03-15 19:40:00,46.6,31.8,29.72,SSW,203,0.0,8.1,56,0.00,,,0.00,heavyweathercustom,2013-03-15 23:40:00,
2013-03-15 20:00:00,46.6,32.2,29.72,SE,135,0.0,8.7,57,0.00,,,0.00,heavyweathercustom,2013-03-16 00:00:00,
2013-03-15 20:10:00,46.6,32.6,29.72,East,90,0.0,8.7,58,0.00,,,0.00,heavyweathercustom,2013-03-16 00:10:00,
2013-03-15 20:20:00,46.6,32.6,29.72,ENE,68,3.3,8.7,58,0.00,,,0.00,heavyweathercustom,2013-03-16 00:20:00,
2013-03-15 20:30:00,46.6,32.6,29.72,East,90,3.3,22.1,58,0.00,,,0.00,heavyweathercustom,2013-03-16 00:30:00,
2013-03-15 20:40:00,46.6,32.2,29.72,ENE,68,0.0,22.1,57,0.00,,,0.00,heavyweathercustom,2013-03-16 00:40:00,
2013-03-15 20:50:00,46.2,32.2,29.72,NE,45,3.3,22.1,58,0.00,,,0.00,heavyweathercustom,2013-03-16 00:50:00,
2013-03-15 21:10:00,46.0,32.1,29.73,ENE,68,3.3,22.0,58,0.00,,,0.00,heavyweathercustom,2013-03-16 01:10:00,
2013-03-15 21:20:00,45.7,31.8,29.74,ENE,68,0.0,22.0,58,0.00,,,0.00,heavyweathercustom,2013-03-16 01:20:00,
2013-03-15 21:30:00,45.3,31.8,29.74,SSE,158,3.3,14.4,59,0.00,,,0.00,heavyweathercustom,2013-03-16 01:30:00,
2013-03-15 21:40:00,44.8,31.4,29.75,WSW,248,3.3,14.4,59,0.00,,,0.00,heavyweathercustom,2013-03-16 01:40:00,
2013-03-15 21:50:00,44.2,31.2,29.75,SE,135,0.0,14.4,60,0.00,,,0.00,heavyweathercustom,2013-03-16 01:50:00,
2013-03-15 22:00:00,43.9,31.3,29.75,SSE,158,0.0,14.4,61,0.00,,,0.00,heavyweathercustom,2013-03-16 02:00:00,
2013-03-15 22:10:00,43.7,31.1,29.75,East,90,0.0,14.4,61,0.00,,,0.00,heavyweathercustom,2013-03-16 02:10:00,
2013-03-15 22:20:00,43.5,31.4,29.75,ENE,68,0.0,13.8,62,0.00,,,0.00,heavyweathercustom,2013-03-16 02:20:00,
2013-03-15 22:30:00,43.3,31.2,29.75,ENE,68,0.0,13.8,62,0.00,,,0.00,heavyweathercustom,2013-03-16 02:30:00,
2013-03-15 22:40:00,43.3,31.2,29.75,East,90,0.0,13.8,62,0.00,,,0.00,heavyweathercustom,2013-03-16 02:40:00,
2013-03-15 22:50:00,43.2,31.1,29.75,WNW,293,0.0,8.7,62,0.00,,,0.00,heavyweathercustom,2013-03-16 02:50:00,
2013-03-15 23:00:00,43.0,30.9,29.75,ENE,68,0.0,8.7,62,0.00,,,0.00,heavyweathercustom,2013-03-16 03:00:00,
2013-03-15 23:10:00,43.0,30.9,29.76,East,90,0.0,13.8,62,0.00,,,0.00,heavyweathercustom,2013-03-16 03:10:00,
2013-03-15 23:20:00,42.6,30.5,29.77,East,90,3.3,13.8,62,0.00,,,0.00,heavyweathercustom,2013-03-16 03:20:00,
2013-03-15 23:30:00,42.6,30.5,29.77,ENE,68,0.0,27.1,62,0.00,,,0.00,heavyweathercustom,2013-03-16 03:30:00,
2013-03-15 23:40:00,42.3,30.2,29.76,NE,45,0.0,27.1,62,0.00,,,0.00,heavyweathercustom,2013-03-16 03:40:00,
2013-03-15 23:50:00,42.1,30.0,29.76,South,180,0.0,27.1,62,0.00,,,0.00,heavyweathercustom,2013-03-16 03:50:00,